Time;durP1;ratioP1;P1;durP2;ratioP2;P2;SDS_P1;SDS_P2;PMS_P1;PMS_P2;Temp;Humidity;BMP_temperature;BMP_pressure;BME280_temperature;BME280_humidity;BME280_pressure;Samples;Min_cycle;Max_cycle;Signal;HPM_P1;HPM_P2
2022/07/16 00:02:43;;;;;;;;;;;;;;;19.45;69.45;99889.48;1728226;83;20699;-80
2022/07/16 00:05:48;;;;;;;;;;;;;;;19.39;69.36;99875.22;1728655;83;20593;-80
2022/07/16 00:08:53;;;;;;;;;;;;;;;19.32;69.95;99868.41;1727166;83;20201;-80
2022/07/16 00:11:58;;;;;;;;;;;;;;;19.29;70.95;99855.56;1727789;83;20189;-79
2022/07/16 00:15:03;;;;;;;;;;;;;;;19.25;71.48;99848.85;1728612;83;20177;-79
2022/07/16 00:21:30;;;;;;;;;;;;;;;19.28;72.41;99848.34;1719108;83;20174;-80
2022/07/16 00:24:36;;;;;;;;;;;;;;;19.32;72.51;99850.38;1714737;84;20195;-80
2022/07/16 00:27:41;;;;;;;;;;;;;;;19.33;72.61;99863.16;1713848;82;20638;-80
2022/07/16 00:30:45;;;;;;;;;;;;;;;19.33;72.95;99862.31;1739274;82;20180;-80
2022/07/16 00:33:50;;;;;;;;;;;;;;;19.29;73.26;99850.89;1747768;82;20208;-80
2022/07/16 00:36:55;;;;;;;;;;;;;;;19.22;73.69;99854.88;1748414;82;20247;-80
2022/07/16 00:40:00;;;;;;;;;;;;;;;19.21;74.07;99855.97;1748863;82;20236;-80
2022/07/16 00:43:05;;;;;;;;;;;;;;;19.19;74.39;99854.80;1747365;81;20216;-80
2022/07/16 00:46:09;;;;;;;;;;;;;;;19.13;74.34;99855.23;1749098;82;20184;-80
2022/07/16 00:49:09;;;;;;;;;;;;;;;19.03;74.60;99855.56;1749253;82;20201;-80
2022/07/16 00:52:13;;;;;;;;;;;;;;;18.94;74.78;99855.09;1748354;82;20489;-80
2022/07/16 00:55:19;;;;;;;;;;;;;;;18.89;75.37;99863.28;1749055;82;20596;-80
2022/07/16 00:58:23;;;;;;;;;;;;;;;18.86;75.75;99857.66;1747413;81;20204;-80
2022/07/16 01:01:29;;;;;;;;;;;;;;;18.86;76.01;99860.98;1748792;82;20205;-80
2022/07/16 01:04:33;;;;;;;;;;;;;;;18.83;76.19;99858.72;1749143;82;20232;-80
2022/07/16 01:07:38;;;;;;;;;;;;;;;18.82;76.63;99858.39;1747321;82;20200;-79
2022/07/16 01:10:44;;;;;;;;;;;;;;;18.79;76.73;99850.58;1748885;82;20228;-79
2022/07/16 01:13:49;;;;;;;;;;;;;;;18.78;78.73;99853.06;1748805;81;20188;-80
2022/07/16 01:16:55;;;;;;;;;;;;;;;18.87;82.31;99856.61;1748706;82;20706;-79
2022/07/16 01:20:00;;;;;;;;;;;;;;;19.02;84.14;99851.95;1753708;81;20205;-79
2022/07/16 01:23:08;;;;;;;;;;;;;;;19.14;85.18;99856.92;1761065;81;20192;-79
2022/07/16 01:26:12;;;;;;;;;;;;;;;19.25;85.80;99855.23;1762260;81;20180;-80
2022/07/16 01:29:17;;;;;;;;;;;;;;;19.35;86.04;99857.38;1761844;81;20606;-81
2022/07/16 01:32:21;;;;;;;;;;;;;;;19.41;85.72;99866.09;1762113;81;20198;-80
2022/07/16 01:35:26;;;;;;;;;;;;;;;19.44;84.24;99869.78;1762034;81;20208;-80
2022/07/16 01:38:31;;;;;;;;;;;;;;;19.43;83.04;99866.69;1760424;81;20613;-81
2022/07/16 01:41:34;;;;;;;;;;;;;;;19.41;82.25;99866.09;1762133;81;20188;-80
2022/07/16 01:44:39;;;;;;;;;;;;;;;19.36;81.89;99870.99;1762531;81;20216;-81
2022/07/16 01:47:37;;;;;;;;;;;;;;;19.32;82.42;99871.72;1762176;81;20184;-81
2022/07/16 01:50:42;;;;;;;;;;;;;;;19.20;82.88;99876.47;1762085;81;20204;-80
2022/07/16 01:53:46;;;;;;;;;;;;;;;19.10;83.34;99871.50;1762442;81;20180;-80
2022/07/16 01:56:51;;;;;;;;;;;;;;;19.07;83.82;99877.01;1761874;81;20636;-80
2022/07/16 01:59:56;;;;;;;;;;;;;;;19.04;84.01;99884.41;1761988;81;20228;-80
2022/07/16 02:03:00;;;;;;;;;;;;;;;19.01;83.64;99878.53;1760749;81;20581;-80
2022/07/16 02:06:05;;;;;;;;;;;;;;;19.00;83.90;99887.36;1762225;81;20197;-80
2022/07/16 02:09:09;;;;;;;;;;;;;;;19.05;84.18;99888.86;1760897;81;20201;-79
2022/07/16 02:12:16;;;;;;;;;;;;;;;19.11;84.06;99899.55;1761645;81;20192;-80
2022/07/16 02:15:22;;;;;;;;;;;;;;;19.15;83.14;99894.67;1762094;81;20173;-80
2022/07/16 02:18:26;;;;;;;;;;;;;;;19.23;82.67;99892.05;1760539;81;20635;-80
2022/07/16 02:21:30;;;;;;;;;;;;;;;19.36;82.42;99899.27;1761133;80;20207;-80
2022/07/16 02:24:35;;;;;;;;;;;;;;;19.51;82.59;99895.98;1761546;81;20681;-80
2022/07/16 02:31:04;;;;;;;;;;;;;;;19.90;81.59;99898.47;1742521;81;20193;-80
2022/07/16 02:34:08;;;;;;;;;;;;;;;20.14;79.70;99903.40;1739379;82;20213;-81
2022/07/16 02:37:13;;;;;;;;;;;;;;;20.35;77.41;99905.99;1738884;82;20731;-80
2022/07/16 02:40:18;;;;;;;;;;;;;;;20.53;74.90;99909.13;1739334;82;20581;-81
2022/07/16 02:43:23;;;;;;;;;;;;;;;20.72;72.86;99892.49;1738201;82;20210;-80
2022/07/16 02:46:28;;;;;;;;;;;;;;;20.98;71.29;99897.05;1739338;82;20194;-81
2022/07/16 02:49:33;;;;;;;;;;;;;;;21.16;70.16;99901.78;1737804;82;20173;-80
2022/07/16 02:52:38;;;;;;;;;;;;;;;21.18;69.48;99892.66;1737838;82;20190;-81
2022/07/16 02:55:43;;;;;;;;;;;;;;;21.19;69.21;99890.16;1739363;82;20656;-79
2022/07/16 02:58:49;;;;;;;;;;;;;;;21.18;68.89;99895.98;1737923;82;20226;-80
2022/07/16 03:01:47;;;;;;;;;;;;;;;21.23;69.18;99891.05;1738920;82;20592;-79
2022/07/16 03:04:53;;;;;;;;;;;;;;;21.38;69.02;99892.67;1739169;82;20185;-80
2022/07/16 03:07:59;;;;;;;;;;;;;;;21.54;68.68;99895.09;1738277;82;20189;-79
2022/07/16 03:11:03;;;;;;;;;;;;;;;21.73;68.48;99898.39;1739598;82;20198;-79
2022/07/16 03:14:09;;;;;;;;;;;;;;;22.02;68.31;99896.22;1740075;81;20264;-79
2022/07/16 03:17:15;;;;;;;;;;;;;;;22.29;67.81;99899.89;1761047;81;20197;-79
2022/07/16 03:20:20;;;;;;;;;;;;;;;22.37;68.00;99898.03;1729823;83;20225;-80
2022/07/16 03:23:25;;;;;;;;;;;;;;;22.34;69.06;99899.10;1744644;81;20228;-80
2022/07/16 03:26:29;;;;;;;;;;;;;;;22.31;70.43;99898.26;1745616;82;20185;-80
2022/07/16 03:29:33;;;;;;;;;;;;;;;22.26;71.69;99901.00;1741426;82;20186;-80
2022/07/16 03:32:36;;;;;;;;;;;;;;;22.24;72.89;99905.97;1729584;83;20225;-80
2022/07/16 03:35:42;;;;;;;;;;;;;;;22.29;73.87;99903.23;1730009;83;20190;-81
2022/07/16 03:39:04;;;;;;;;;;;;;;;22.46;74.12;99906.76;1728595;83;20174;-80
2022/07/16 03:42:07;;;;;;;;;;;;;;;22.69;73.78;99903.63;1729945;83;20155;-79
2022/07/16 03:45:13;;;;;;;;;;;;;;;22.90;73.41;99896.27;1736741;82;20240;-79
2022/07/16 03:48:17;;;;;;;;;;;;;;;22.98;72.92;99904.71;1744450;82;20843;-80
2022/07/16 03:51:21;;;;;;;;;;;;;;;22.86;73.22;99900.67;1745318;82;20225;-80
2022/07/16 03:54:24;;;;;;;;;;;;;;;22.72;73.98;99903.63;1745628;82;20224;-81
2022/07/16 03:57:29;;;;;;;;;;;;;;;22.64;74.66;99911.94;1744946;82;20617;-80
2022/07/16 04:00:34;;;;;;;;;;;;;;;22.62;75.26;99921.10;1727005;82;20230;-79
2022/07/16 04:03:39;;;;;;;;;;;;;;;22.57;75.69;99915.48;1716464;83;20198;-79
2022/07/16 04:06:44;;;;;;;;;;;;;;;22.48;76.18;99916.23;1717472;83;20217;-80
2022/07/16 04:09:50;;;;;;;;;;;;;;;22.41;76.80;99927.61;1716345;82;20193;-80
2022/07/16 04:12:55;;;;;;;;;;;;;;;22.32;77.21;99926.40;1716836;83;20205;-80
2022/07/16 04:16:00;;;;;;;;;;;;;;;22.25;77.69;99921.02;1716765;83;20181;-80
2022/07/16 04:19:04;;;;;;;;;;;;;;;22.17;78.33;99923.74;1717816;83;20977;-80
2022/07/16 04:22:09;;;;;;;;;;;;;;;22.09;78.92;99935.31;1718318;82;20186;-80
2022/07/16 04:25:14;;;;;;;;;;;;;;;21.98;79.50;99941.04;1728480;83;20189;-80
2022/07/16 04:28:19;;;;;;;;;;;;;;;21.88;80.25;99943.98;1739071;82;20196;-81
2022/07/16 04:31:22;;;;;;;;;;;;;;;21.83;80.65;99948.10;1751403;82;20196;-80
2022/07/16 04:34:26;;;;;;;;;;;;;;;21.78;81.47;99945.22;1753080;82;20624;-81
2022/07/16 04:37:30;;;;;;;;;;;;;;;21.73;82.16;99952.12;1751453;82;20507;-80
2022/07/16 04:40:34;;;;;;;;;;;;;;;21.66;82.93;99957.05;1759231;81;20216;-80
2022/07/16 04:43:39;;;;;;;;;;;;;;;21.59;84.03;99962.79;1758793;81;20184;-80
2022/07/16 04:46:44;;;;;;;;;;;;;;;21.51;84.95;99966.03;1758966;81;20200;-80
2022/07/16 04:49:49;;;;;;;;;;;;;;;21.42;85.73;99969.80;1759814;81;20209;-79
2022/07/16 04:52:54;;;;;;;;;;;;;;;21.36;86.58;99970.84;1759285;81;20228;-80
2022/07/16 04:55:58;;;;;;;;;;;;;;;21.31;87.51;99968.50;1760190;81;20196;-80
2022/07/16 04:59:03;;;;;;;;;;;;;;;21.27;88.29;99979.28;1759439;81;20204;-80
2022/07/16 05:05:36;;;;;;;;;;;;;;;21.13;90.21;99975.17;1728332;83;20190;-80
2022/07/16 05:08:40;;;;;;;;;;;;;;;21.09;90.90;99978.16;1728295;83;20478;-80
2022/07/16 05:11:44;;;;;;;;;;;;;;;21.05;91.52;99964.46;1728108;83;20615;-80
2022/07/16 05:14:49;;;;;;;;;;;;;;;21.06;91.92;99968.37;1726475;82;20626;-80
2022/07/16 05:17:55;;;;;;;;;;;;;;;21.11;92.74;99975.40;1727989;83;20215;-80
2022/07/16 05:20:59;;;;;;;;;;;;;;;21.17;92.97;99979.09;1727322;83;20603;-80
2022/07/16 05:24:03;;;;;;;;;;;;;;;21.25;93.23;99980.06;1728100;83;20203;-80
2022/07/16 05:27:07;;;;;;;;;;;;;;;21.34;93.01;99981.91;1729206;83;20673;-81
2022/07/16 05:30:12;;;;;;;;;;;;;;;21.44;93.04;99980.66;1729010;83;20211;-80
2022/07/16 05:33:17;;;;;;;;;;;;;;;21.52;93.05;99981.62;1728220;83;20183;-79
2022/07/16 05:36:21;;;;;;;;;;;;;;;21.63;92.90;99986.78;1729416;83;20199;-80
2022/07/16 05:39:26;;;;;;;;;;;;;;;21.74;92.20;99994.19;1729232;83;20219;-80
2022/07/16 05:42:24;;;;;;;;;;;;;;;21.99;92.09;99992.28;1729502;83;20223;-80
2022/07/16 05:45:29;;;;;;;;;;;;;;;22.31;89.89;99982.67;1748400;81;20192;-80
2022/07/16 05:48:32;;;;;;;;;;;;;;;22.64;88.73;99998.35;1739408;82;20202;-80
2022/07/16 05:51:38;;;;;;;;;;;;;;;22.98;86.72;99988.38;1739559;82;20201;-80
2022/07/16 05:54:43;;;;;;;;;;;;;;;23.24;83.59;99981.59;1739207;82;20225;-80
2022/07/16 05:57:48;;;;;;;;;;;;;;;23.45;81.80;99984.83;1739431;82;20230;-80
2022/07/16 06:00:53;;;;;;;;;;;;;;;23.56;80.06;99974.55;1739367;82;20194;-81
2022/07/16 06:03:58;;;;;;;;;;;;;;;23.65;79.07;99977.16;1741054;82;20202;-80
2022/07/16 06:07:02;;;;;;;;;;;;;;;23.69;78.37;99985.28;1740488;82;20595;-80
2022/07/16 06:10:06;;;;;;;;;;;;;;;23.74;78.42;99992.28;1739123;82;20218;-80
2022/07/16 06:13:11;;;;;;;;;;;;;;;23.83;78.28;99990.66;1739720;82;20201;-80
2022/07/16 06:16:15;;;;;;;;;;;;;;;23.95;77.27;100002.45;1740908;82;20600;-81
2022/07/16 06:19:19;;;;;;;;;;;;;;;23.99;76.31;100005.53;1741142;82;20221;-81
2022/07/16 06:22:24;;;;;;;;;;;;;;;24.04;76.73;100005.55;1739499;82;20438;-79
2022/07/16 06:25:22;;;;;;;;;;;;;;;24.09;75.91;100008.39;1740734;82;20620;-79
2022/07/16 06:28:27;;;;;;;;;;;;;;;24.17;76.02;100016.22;1742490;82;20267;-79
2022/07/16 06:31:31;;;;;;;;;;;;;;;24.26;75.22;100010.12;1742476;82;20197;-79
2022/07/16 06:34:36;;;;;;;;;;;;;;;24.32;75.16;100017.39;1744102;82;20804;-79
2022/07/16 06:37:41;;;;;;;;;;;;;;;24.34;74.15;100018.81;1743705;82;20201;-79
2022/07/16 06:40:51;;;;;;;;;;;;;;;24.35;74.68;100009.87;1742685;82;20185;-79
2022/07/16 06:43:55;;;;;;;;;;;;;;;24.32;74.55;100014.60;1742667;82;20208;-78
2022/07/16 06:47:02;;;;;;;;;;;;;;;24.20;74.39;100020.44;1744436;82;20189;-80
2022/07/16 06:50:06;;;;;;;;;;;;;;;24.05;74.90;100021.22;1744443;82;20609;-80
2022/07/16 06:53:11;;;;;;;;;;;;;;;23.90;75.36;100027.58;1743867;82;20620;-80
2022/07/16 06:56:10;;;;;;;;;;;;;;;23.81;75.82;100025.56;1741789;82;20213;-80
2022/07/16 06:59:08;;;;;;;;;;;;;;;23.70;76.39;100019.06;1743588;82;20209;-79
2022/07/16 07:02:00;;;;;;;;;;;;;;;23.60;77.08;100020.37;1743286;82;20224;-80
2022/07/16 07:05:06;;;;;;;;;;;;;;;23.55;77.39;100024.52;1743906;82;20205;-80
2022/07/16 07:08:10;;;;;;;;;;;;;;;23.47;77.83;100028.64;1742581;82;20200;-81
2022/07/16 07:11:15;;;;;;;;;;;;;;;23.42;77.96;100028.05;1743350;82;20221;-80
2022/07/16 07:14:20;;;;;;;;;;;;;;;23.36;78.62;100029.13;1743225;82;20366;-79
2022/07/16 07:17:20;;;;;;;;;;;;;;;23.29;79.15;100025.75;1743185;82;20415;-80
2022/07/16 07:20:14;;;;;;;;;;;;;;;23.23;79.49;100024.55;1743575;82;20208;-81
2022/07/16 07:23:20;;;;;;;;;;;;;;;23.22;79.67;100026.51;1742041;82;20193;-81
2022/07/16 07:26:17;;;;;;;;;;;;;;;23.18;79.69;100020.61;1743148;82;20265;-81
2022/07/16 07:29:22;;;;;;;;;;;;;;;23.19;79.90;100025.08;1740804;82;20224;-80
2022/07/16 07:32:27;;;;;;;;;;;;;;;23.27;79.45;100027.94;1700912;84;20193;-80
2022/07/16 07:35:26;;;;;;;;;;;;;;;23.34;78.87;100022.99;1701967;84;20192;-79
2022/07/16 07:38:19;;;;;;;;;;;;;;;23.41;79.42;100022.75;1701063;84;20212;-79
2022/07/16 07:41:05;;;;;;;;;;;;;;;23.51;78.89;100024.20;1701895;84;20700;-80
2022/07/16 07:43:56;;;;;;;;;;;;;;;23.60;77.23;100023.16;1702153;82;20193;-80
2022/07/16 07:46:41;;;;;;;;;;;;;;;23.66;77.04;100017.36;1743922;82;20244;-80
2022/07/16 07:49:35;;;;;;;;;;;;;;;23.73;76.95;100016.30;1742606;82;20185;-79
2022/07/16 07:52:22;;;;;;;;;;;;;;;23.90;75.97;100019.72;1743311;82;20649;-80
2022/07/16 07:55:26;;;;;;;;;;;;;;;24.10;75.64;100012.02;1744004;82;20197;-80
2022/07/16 07:58:31;;;;;;;;;;;;;;;24.31;75.17;100007.34;1742631;82;20189;-80
2022/07/16 08:01:35;;;;;;;;;;;;;;;24.48;74.47;100005.20;1744222;82;20185;-81
2022/07/16 08:04:41;;;;;;;;;;;;;;;24.70;73.83;100007.20;1743540;82;20220;-81
2022/07/16 08:07:47;;;;;;;;;;;;;;;24.91;71.85;100007.22;1743028;82;20189;-78
2022/07/16 08:10:53;;;;;;;;;;;;;;;25.13;69.77;100009.23;1742250;82;20612;-78
2022/07/16 08:13:58;;;;;;;;;;;;;;;25.24;68.52;100019.30;1742168;82;20193;-80
2022/07/16 08:17:04;;;;;;;;;;;;;;;25.32;68.53;100022.10;1744229;81;20212;-82
2022/07/16 08:20:11;;;;;;;;;;;;;;;25.39;68.26;100028.80;1742711;82;20201;-80
2022/07/16 08:25:44;;;;;;;;;;;;;;;25.46;68.14;100022.38;1743139;82;20206;-80
2022/07/16 08:26:22;;;;;;;;;;;;;;;25.62;67.45;100014.77;1744199;81;20185;-80
2022/07/16 08:29:27;;;;;;;;;;;;;;;25.70;67.60;100010.00;1742179;82;20185;-80
2022/07/16 08:32:31;;;;;;;;;;;;;;;25.80;67.12;100000.77;1743177;82;20209;-80
2022/07/16 08:35:36;;;;;;;;;;;;;;;25.88;66.83;100004.39;1742307;82;20596;-80
2022/07/16 08:38:40;;;;;;;;;;;;;;;25.98;65.71;100005.75;1742646;82;20225;-80
2022/07/16 08:41:44;;;;;;;;;;;;;;;25.99;65.28;99996.22;1743811;82;20191;-80
2022/07/16 08:44:49;;;;;;;;;;;;;;;25.96;66.00;99999.02;1744049;82;20197;-80
2022/07/16 08:47:55;;;;;;;;;;;;;;;26.03;66.09;99994.52;1742512;82;20201;-80
2022/07/16 08:51:00;;;;;;;;;;;;;;;26.08;65.35;99998.70;1743750;82;20196;-80
2022/07/16 08:54:23;;;;;;;;;;;;;;;26.09;65.07;100004.58;1742817;82;20226;-80
2022/07/16 08:57:27;;;;;;;;;;;;;;;26.09;65.21;100003.74;1744170;82;20189;-80
2022/07/16 09:00:31;;;;;;;;;;;;;;;26.03;65.36;100002.09;1728615;82;20205;-80
2022/07/16 09:03:35;;;;;;;;;;;;;;;25.90;66.09;100007.17;1729248;83;20226;-80
2022/07/16 09:06:40;;;;;;;;;;;;;;;25.84;66.11;100007.48;1748943;82;20625;-80
2022/07/16 09:09:46;;;;;;;;;;;;;;;25.68;66.66;100010.83;1749063;82;20201;-81
2022/07/16 09:12:54;;;;;;;;;;;;;;;25.57;66.28;100008.62;1748175;82;20668;-80
2022/07/16 09:15:52;;;;;;;;;;;;;;;25.46;67.37;100016.20;1749110;81;20229;-81
2022/07/16 09:19:01;;;;;;;;;;;;;;;25.35;67.67;100020.68;1747278;82;20185;-80
2022/07/16 09:22:17;;;;;;;;;;;;;;;25.28;67.81;100018.74;1748418;82;20209;-80
2022/07/16 09:25:21;;;;;;;;;;;;;;;25.20;68.06;100015.38;1748948;82;20193;-79
2022/07/16 09:28:26;;;;;;;;;;;;;;;25.09;68.37;100022.66;1738769;82;20229;-80
2022/07/16 09:31:47;;;;;;;;;;;;;;;24.95;68.98;100015.34;1730020;83;20213;-80
2022/07/16 09:34:44;;;;;;;;;;;;;;;24.81;69.63;100021.20;1687683;85;20182;-80
2022/07/16 09:37:55;;;;;;;;;;;;;;;24.68;70.19;100008.03;1698216;84;20189;-80
2022/07/16 09:41:00;;;;;;;;;;;;;;;24.67;70.52;100010.55;1698710;84;20221;-80
2022/07/16 09:44:06;;;;;;;;;;;;;;;24.64;70.47;100015.28;1698870;83;20194;-80
2022/07/16 09:47:19;;;;;;;;;;;;;;;24.58;70.73;100002.42;1717658;83;20232;-80
2022/07/16 09:50:23;;;;;;;;;;;;;;;24.62;70.60;99999.36;1717443;83;20195;-79
2022/07/16 09:53:30;;;;;;;;;;;;;;;24.71;70.77;99999.66;1716635;83;20603;-79
2022/07/16 09:56:35;;;;;;;;;;;;;;;24.73;70.14;99990.42;1718195;83;20435;-80
2022/07/16 09:59:40;;;;;;;;;;;;;;;24.80;70.36;99990.16;1717966;82;20201;-79
2022/07/16 10:02:46;;;;;;;;;;;;;;;24.87;69.87;99988.75;1711983;84;20579;-80
2022/07/16 10:05:51;;;;;;;;;;;;;;;25.01;68.94;99995.20;1712526;84;20224;-79
2022/07/16 10:08:57;;;;;;;;;;;;;;;25.10;69.09;99985.16;1711863;84;20584;-79
2022/07/16 10:12:02;;;;;;;;;;;;;;;25.15;68.65;99991.59;1717647;83;20189;-80
2022/07/16 10:15:06;;;;;;;;;;;;;;;25.16;68.36;99998.02;1716630;83;20201;-80
2022/07/16 10:18:13;;;;;;;;;;;;;;;25.13;67.94;99982.65;1717080;83;20182;-80
2022/07/16 10:21:19;;;;;;;;;;;;;;;25.11;67.56;99985.44;1706916;83;20213;-79
2022/07/16 10:24:23;;;;;;;;;;;;;;;25.03;68.33;99995.22;1716990;83;20244;-80
2022/07/16 10:27:37;;;;;;;;;;;;;;;25.08;67.39;99989.65;1717202;83;20210;-79
2022/07/16 10:30:43;;;;;;;;;;;;;;;25.24;66.54;99992.70;1751944;80;20200;-79
2022/07/16 10:33:48;;;;;;;;;;;;;;;25.35;66.02;99987.92;1756299;81;20180;-80
2022/07/16 10:37:00;;;;;;;;;;;;;;;25.40;65.51;99991.28;1757010;81;20280;-80
2022/07/16 10:40:07;;;;;;;;;;;;;;;25.35;65.82;99982.33;1758066;81;20585;-79
2022/07/16 10:43:25;;;;;;;;;;;;;;;25.40;65.86;99992.68;1757859;81;20149;-80
2022/07/16 10:46:32;;;;;;;;;;;;;;;25.49;65.15;99981.19;1757877;81;20201;-80
2022/07/16 10:49:37;;;;;;;;;;;;;;;25.60;63.83;99975.86;1757806;81;20213;-80
2022/07/16 10:52:49;;;;;;;;;;;;;;;25.68;61.78;99978.06;1757860;81;20200;-80
2022/07/16 10:55:52;;;;;;;;;;;;;;;25.72;61.97;99967.97;1757849;81;20220;-80
2022/07/16 10:58:57;;;;;;;;;;;;;;;25.79;61.84;99971.92;1757852;81;20216;-80
2022/07/16 11:02:04;;;;;;;;;;;;;;;25.80;60.67;99969.95;1757701;81;20208;-80
2022/07/16 11:05:08;;;;;;;;;;;;;;;25.72;62.45;99969.37;1757905;81;20715;-80
2022/07/16 11:08:17;;;;;;;;;;;;;;;25.73;63.05;99962.63;1757826;81;20153;-80
2022/07/16 11:11:21;;;;;;;;;;;;;;;25.75;63.39;99960.97;1758011;81;20197;-79
2022/07/16 11:14:24;;;;;;;;;;;;;;;25.76;63.50;99966.05;1757702;81;20173;-80
2022/07/16 11:17:30;;;;;;;;;;;;;;;25.75;63.43;99962.37;1757664;81;20609;-80
2022/07/16 11:20:42;;;;;;;;;;;;;;;25.79;62.33;99957.91;1757689;81;20172;-80
2022/07/16 11:24:01;;;;;;;;;;;;;;;25.90;62.20;99959.54;1755952;81;20228;-80
2022/07/16 11:27:07;;;;;;;;;;;;;;;26.04;61.43;99952.76;1756882;81;20576;-80
2022/07/16 11:30:16;;;;;;;;;;;;;;;26.18;60.35;99952.97;1755594;82;20888;-80
2022/07/16 11:33:24;;;;;;;;;;;;;;;26.25;60.87;99954.34;1757119;81;20236;-80
2022/07/16 11:36:38;;;;;;;;;;;;;;;26.36;60.92;99957.92;1738908;81;20854;-80
2022/07/16 11:39:44;;;;;;;;;;;;;;;26.40;59.46;99956.78;1758529;81;20940;-80
2022/07/16 11:42:48;;;;;;;;;;;;;;;26.45;58.67;99955.38;1758068;81;20197;-80
2022/07/16 11:45:53;;;;;;;;;;;;;;;26.45;57.59;99954.81;1758008;81;20176;-81
2022/07/16 11:48:56;;;;;;;;;;;;;;;26.41;57.42;99943.87;1757318;81;20196;-79
2022/07/16 11:52:03;;;;;;;;;;;;;;;26.42;57.35;99946.10;1758356;81;20672;-79
2022/07/16 11:55:07;;;;;;;;;;;;;;;26.43;56.65;99950.61;1758896;81;20188;-80
2022/07/16 11:58:12;;;;;;;;;;;;;;;26.46;56.85;99950.04;1758988;81;20197;-79
2022/07/16 12:01:17;;;;;;;;;;;;;;;26.51;56.95;99941.59;1730957;81;20189;-80
2022/07/16 12:04:21;;;;;;;;;;;;;;;26.62;56.52;99950.19;1729237;83;20237;-80
2022/07/16 12:07:36;;;;;;;;;;;;;;;26.68;56.80;99958.88;1728935;83;20201;-79
2022/07/16 12:10:42;;;;;;;;;;;;;;;26.72;56.80;99940.33;1728814;83;20652;-80
2022/07/16 12:13:51;;;;;;;;;;;;;;;26.74;53.29;99947.04;1727468;83;20419;-80
2022/07/16 12:17:01;;;;;;;;;;;;;;;26.78;54.19;99938.88;1727545;83;20201;-79
2022/07/16 12:20:33;;;;;;;;;;;;;;;26.81;53.33;99952.30;1728889;83;20193;-80
2022/07/16 12:23:40;;;;;;;;;;;;;;;26.77;52.00;99946.44;1728733;83;20204;-81
2022/07/16 12:26:46;;;;;;;;;;;;;;;26.71;52.19;99952.66;1728938;83;20184;-81
2022/07/16 12:29:50;;;;;;;;;;;;;;;26.79;51.65;99950.38;1738723;81;20585;-81
2022/07/16 12:32:57;;;;;;;;;;;;;;;26.85;51.00;99964.05;1757518;81;20181;-80
2022/07/16 12:36:08;;;;;;;;;;;;;;;26.90;50.38;99947.17;1756849;81;20180;-80
2022/07/16 12:39:14;;;;;;;;;;;;;;;26.95;50.83;99951.91;1757820;81;20255;-80
2022/07/16 12:42:19;;;;;;;;;;;;;;;27.00;50.62;99946.25;1757300;81;20196;-80
2022/07/16 12:45:24;;;;;;;;;;;;;;;27.01;50.44;99945.14;1750821;81;20585;-80
2022/07/16 12:48:29;;;;;;;;;;;;;;;27.00;49.80;99951.86;1744137;82;20950;-81
2022/07/16 12:51:36;;;;;;;;;;;;;;;27.00;50.83;99949.05;1743593;82;20205;-80
2022/07/16 13:01:27;;;;;;;;;;;;;;;27.08;52.21;99954.61;1745508;82;20213;-80
2022/07/16 13:04:30;;;;;;;;;;;;;;;27.09;51.97;99951.53;1745885;82;20189;-80
2022/07/16 13:07:36;;;;;;;;;;;;;;;27.08;51.95;99957.42;1744844;82;20197;-81
2022/07/16 13:10:45;;;;;;;;;;;;;;;27.03;52.37;99956.90;1746110;82;20657;-81
2022/07/16 13:13:52;;;;;;;;;;;;;;;27.01;52.65;99950.75;1746023;82;20201;-81
2022/07/16 13:16:57;;;;;;;;;;;;;;;27.02;52.36;99962.25;1744750;82;20232;-81
2022/07/16 13:20:02;;;;;;;;;;;;;;;27.05;52.25;99958.83;1745699;82;20197;-81
2022/07/16 13:23:06;;;;;;;;;;;;;;;27.12;51.30;99960.78;1745009;82;20620;-81
2022/07/16 13:26:05;;;;;;;;;;;;;;;27.17;50.73;99960.73;1745498;82;20605;-80
2022/07/16 13:29:08;;;;;;;;;;;;;;;27.18;50.72;99966.61;1746498;81;20603;-81
2022/07/16 13:32:12;;;;;;;;;;;;;;;27.14;50.13;99969.73;1757561;81;20823;-81
2022/07/16 13:35:18;;;;;;;;;;;;;;;27.11;52.47;99968.10;1746278;81;20186;-81
2022/07/16 13:38:23;;;;;;;;;;;;;;;27.08;52.95;99965.84;1699735;84;20177;-80
2022/07/16 13:41:28;;;;;;;;;;;;;;;27.03;52.40;99969.53;1697504;84;20197;-80
2022/07/16 13:44:35;;;;;;;;;;;;;;;26.92;52.79;99972.16;1717739;83;20243;-81
2022/07/16 13:47:40;;;;;;;;;;;;;;;26.81;52.69;99970.54;1728561;83;20179;-81
2022/07/16 13:50:46;;;;;;;;;;;;;;;26.68;52.44;99970.66;1709145;83;20203;-81
2022/07/16 13:53:52;;;;;;;;;;;;;;;26.56;52.08;99974.38;1746679;82;20616;-80
2022/07/16 14:00:03;;;;;;;;;;;;;;;26.40;52.12;99977.81;1659030;84;20321;-81
2022/07/16 14:03:08;;;;;;;;;;;;;;;26.35;50.88;99971.67;1757737;81;20192;-80
2022/07/16 14:06:13;;;;;;;;;;;;;;;26.31;50.11;99976.17;1758344;81;20189;-81
2022/07/16 14:09:17;;;;;;;;;;;;;;;26.28;50.34;99980.95;1757738;81;20180;-81
2022/07/16 14:12:22;;;;;;;;;;;;;;;26.20;50.50;99976.77;1758525;81;20204;-80
2022/07/16 14:15:33;;;;;;;;;;;;;;;26.10;49.44;99985.80;1739449;81;20593;-80
2022/07/16 14:18:34;;;;;;;;;;;;;;;26.04;48.36;99983.58;1727375;83;20253;-80
2022/07/16 14:21:43;;;;;;;;;;;;;;;26.02;49.51;99971.84;1728553;83;20225;-80
2022/07/16 14:24:46;;;;;;;;;;;;;;;25.99;48.28;99982.20;1727437;83;20193;-80
2022/07/16 14:27:52;;;;;;;;;;;;;;;25.95;48.82;99974.09;1727538;83;20604;-81
2022/07/16 14:30:57;;;;;;;;;;;;;;;25.92;50.19;99980.26;1752457;81;20584;-81
2022/07/16 14:34:02;;;;;;;;;;;;;;;25.88;51.39;99973.58;1759175;80;20217;-80
2022/07/16 14:37:06;;;;;;;;;;;;;;;25.86;51.88;99967.40;1758285;81;20529;-80
2022/07/16 14:40:12;;;;;;;;;;;;;;;25.85;50.56;99972.73;1757592;81;20220;-81
2022/07/16 14:43:18;;;;;;;;;;;;;;;25.84;48.14;99962.66;1757191;81;20197;-81
2022/07/16 14:46:23;;;;;;;;;;;;;;;25.83;49.35;99966.56;1758602;81;20193;-80
2022/07/16 14:49:27;;;;;;;;;;;;;;;25.81;49.31;99966.02;1758857;81;20632;-81
2022/07/16 14:52:31;;;;;;;;;;;;;;;25.76;49.88;99974.44;1758262;81;20188;-80
2022/07/16 14:55:36;;;;;;;;;;;;;;;25.69;50.45;99965.76;1757746;81;20429;-80
2022/07/16 14:58:41;;;;;;;;;;;;;;;25.64;50.28;99974.17;1757172;81;20600;-80
2022/07/16 15:01:46;;;;;;;;;;;;;;;25.61;51.06;99971.93;1758508;81;20224;-80
2022/07/16 15:04:45;;;;;;;;;;;;;;;25.60;51.02;99970.27;1758798;81;20193;-81
2022/07/16 15:07:51;;;;;;;;;;;;;;;25.60;51.54;99968.86;1756922;81;20237;-80
2022/07/16 15:10:57;;;;;;;;;;;;;;;25.60;51.82;99975.03;1757782;81;20600;-80
2022/07/16 15:14:02;;;;;;;;;;;;;;;25.57;52.54;99980.63;1758964;81;20220;-79
2022/07/16 15:17:07;;;;;;;;;;;;;;;25.56;52.80;99973.34;1758544;81;20264;-80
2022/07/16 15:20:13;;;;;;;;;;;;;;;25.55;52.37;99976.41;1758674;81;20228;-79
2022/07/16 15:23:18;;;;;;;;;;;;;;;25.53;52.79;99978.67;1757356;81;20196;-80
2022/07/16 15:26:22;;;;;;;;;;;;;;;25.48;53.49;99981.75;1757387;81;20189;-80
2022/07/16 15:29:27;;;;;;;;;;;;;;;25.45;51.68;99988.47;1753881;81;20197;-80
2022/07/16 15:32:31;;;;;;;;;;;;;;;25.39;50.77;99985.41;1728321;83;20197;-80
2022/07/16 15:35:37;;;;;;;;;;;;;;;25.37;51.99;99987.10;1732800;82;20636;-80
2022/07/16 15:38:43;;;;;;;;;;;;;;;25.36;52.96;99985.43;1792762;80;20216;-81
2022/07/16 15:41:48;;;;;;;;;;;;;;;25.34;52.55;99991.86;1794170;79;20207;-80
2022/07/16 15:44:53;;;;;;;;;;;;;;;25.29;52.55;100004.45;1794504;80;20607;-80
2022/07/16 15:47:59;;;;;;;;;;;;;;;25.26;52.41;100001.38;1793617;80;20200;-80
2022/07/16 15:51:04;;;;;;;;;;;;;;;25.22;52.55;100003.35;1794602;80;20196;-81
2022/07/16 15:54:07;;;;;;;;;;;;;;;25.19;52.95;100005.87;1794577;80;20195;-80
2022/07/16 15:57:13;;;;;;;;;;;;;;;25.16;51.65;100008.66;1792953;80;20199;-80
2022/07/16 16:00:18;;;;;;;;;;;;;;;25.12;51.51;100004.73;1777676;80;20193;-80
2022/07/16 16:03:22;;;;;;;;;;;;;;;25.08;52.22;100010.63;1760615;81;20249;-80
2022/07/16 16:06:27;;;;;;;;;;;;;;;25.04;53.07;100013.67;1762256;81;20220;-80
2022/07/16 16:09:25;;;;;;;;;;;;;;;24.99;53.35;100013.11;1761582;81;20224;-80
2022/07/16 16:12:16;;;;;;;;;;;;;;;24.94;53.30;100013.11;1761471;81;20667;-80
2022/07/16 16:15:20;;;;;;;;;;;;;;;24.88;52.61;100011.41;1779761;80;20718;-80
2022/07/16 16:18:24;;;;;;;;;;;;;;;24.82;52.31;100012.52;1793576;80;20192;-80